Time;durP1;ratioP1;P1;durP2;ratioP2;P2;SDS_P1;SDS_P2;PMS_P1;PMS_P2;Temp;Humidity;BMP_temperature;BMP_pressure;BME280_temperature;BME280_humidity;BME280_pressure;Samples;Min_cycle;Max_cycle;Signal;HPM_P1;HPM_P2
2022/03/06 00:01:03;;;;;;;2.70;2.05;;;;;;;-0.63;100.00;90352.25;5013911;28;20049;-66
2022/03/06 00:03:29;;;;;;;2.78;2.38;;;;;;;-0.63;100.00;90353.03;5013695;28;20079;-66
2022/03/06 00:05:54;;;;;;;2.20;2.00;;;;;;;-0.60;100.00;90349.13;5013650;28;20611;-66
2022/03/06 00:08:20;;;;;;;3.78;2.70;;;;;;;-0.53;100.00;90347.03;5013536;28;20038;-66
2022/03/06 00:10:46;;;;;;;3.47;2.92;;;;;;;-0.56;100.00;90355.41;4996049;28;20431;-66
2022/03/06 00:13:14;;;;;;;3.72;2.97;;;;;;;-0.61;100.00;90348.34;4995984;28;20051;-66
2022/03/06 00:15:40;;;;;;;4.20;2.53;;;;;;;-0.72;100.00;90344.09;5013466;28;20470;-66
2022/03/06 00:18:05;;;;;;;1.83;1.73;;;;;;;-0.74;100.00;90332.34;5013560;28;20108;-66
2022/03/06 00:20:31;;;;;;;4.07;3.20;;;;;;;-0.65;100.00;90325.56;5013542;28;20041;-66
2022/03/06 00:22:56;;;;;;;2.97;2.47;;;;;;;-0.72;100.00;90335.50;5013371;28;20480;-66
2022/03/06 00:25:22;;;;;;;3.15;2.25;;;;;;;-0.69;100.00;90338.38;5013369;28;20064;-65
2022/03/06 00:27:47;;;;;;;2.38;2.15;;;;;;;-0.77;100.00;90333.66;5013307;28;20404;-66
2022/03/06 00:30:12;;;;;;;3.45;2.80;;;;;;;-0.72;100.00;90332.88;5013353;28;20050;-66
2022/03/06 00:32:38;;;;;;;2.28;2.08;;;;;;;-0.77;100.00;90317.19;5013264;28;20121;-66
2022/03/06 00:35:05;;;;;;;2.50;2.03;;;;;;;-0.78;100.00;90326.88;5013136;28;20133;-66
2022/03/06 00:37:30;;;;;;;2.53;2.33;;;;;;;-0.76;100.00;90319.56;5013112;28;20045;-66
2022/03/06 00:39:56;;;;;;;2.05;1.88;;;;;;;-0.79;100.00;90320.06;5013071;28;20160;-66
2022/03/06 00:42:21;;;;;;;2.40;1.90;;;;;;;-0.81;100.00;90316.13;5012937;28;20038;-66
2022/03/06 00:44:46;;;;;;;3.05;2.42;;;;;;;-0.85;100.00;90320.28;5012873;28;20083;-66
2022/03/06 00:47:12;;;;;;;3.20;2.90;;;;;;;-0.77;100.00;90317.19;5013010;28;20057;-66
2022/03/06 00:49:38;;;;;;;9.18;2.90;;;;;;;-0.81;100.00;90306.47;5012986;28;20112;-66
2022/03/06 00:52:03;;;;;;;1.80;1.60;;;;;;;-0.86;100.00;90310.88;4995292;28;20214;-66
2022/03/06 00:54:29;;;;;;;3.15;2.58;;;;;;;-0.82;100.00;90314.53;5012799;28;20044;-66
2022/03/06 00:56:54;;;;;;;1.80;1.67;;;;;;;-0.82;100.00;90327.59;5012780;28;20041;-66
2022/03/06 00:59:20;;;;;;;1.60;1.45;;;;;;;-0.89;100.00;90304.34;5012797;28;20135;-65
2022/03/06 01:01:45;;;;;;;2.30;2.10;;;;;;;-0.88;100.00;90316.38;5012324;28;20072;-65
2022/03/06 01:04:11;;;;;;;2.63;2.22;;;;;;;-0.88;100.00;90312.97;4994934;28;20129;-66
2022/03/06 01:06:36;;;;;;;2.78;2.35;;;;;;;-0.88;100.00;90323.41;5012414;28;20041;-66
2022/03/06 01:09:03;;;;;;;2.22;2.00;;;;;;;-0.89;100.00;90295.72;5012452;28;20125;-66
2022/03/06 01:11:29;;;;;;;2.60;2.40;;;;;;;-0.97;100.00;90303.00;5012551;28;20508;-67
2022/03/06 01:13:55;;;;;;;2.70;2.05;;;;;;;-0.98;100.00;90296.22;5012421;28;20152;-66
2022/03/06 01:16:20;;;;;;;2.63;1.70;;;;;;;-0.95;100.00;90295.72;5182668;22;20144;-67
2022/03/06 01:18:46;;;;;;;2.40;2.10;;;;;;;-0.96;100.00;90319.44;5032247;28;20041;-67
2022/03/06 01:21:12;;;;;;;3.13;2.80;;;;;;;-0.95;100.00;90311.38;5032209;28;20030;-67
2022/03/06 01:23:57;;;;;;;2.60;2.20;;;;;;;-1.01;100.00;90322.81;5032089;28;20478;-67
2022/03/06 01:26:22;;;;;;;3.50;2.97;;;;;;;-1.01;100.00;90306.38;5032096;28;20072;-67
2022/03/06 01:28:48;;;;;;;2.75;2.28;;;;;;;-1.05;100.00;90305.31;5032335;28;20510;-68
2022/03/06 01:31:13;;;;;;;2.60;2.28;;;;;;;-1.09;100.00;90305.06;5031976;28;20026;-67
2022/03/06 01:33:39;;;;;;;2.65;2.20;;;;;;;-1.07;100.00;90299.56;5031967;28;20034;-67
2022/03/06 01:36:04;;;;;;;2.40;2.10;;;;;;;-1.10;100.00;90295.66;5031764;28;20025;-67
2022/03/06 01:38:30;;;;;;;3.40;2.47;;;;;;;-1.14;100.00;90301.63;5031838;28;20552;-67
2022/03/06 01:40:55;;;;;;;2.35;1.80;;;;;;;-1.13;100.00;90298.75;5031888;28;20553;-67
2022/03/06 01:43:21;;;;;;;1.67;1.58;;;;;;;-1.14;100.00;90291.97;5031687;28;20025;-67
2022/03/06 01:45:46;;;;;;;2.30;2.08;;;;;;;-1.10;100.00;90297.47;5031646;28;20064;-67
2022/03/06 01:48:12;;;;;;;2.20;1.73;;;;;;;-1.16;100.00;90296.66;5031712;28;20033;-67
2022/03/06 01:50:38;;;;;;;1.80;1.70;;;;;;;-1.16;100.00;90288.81;5031645;28;20033;-67
2022/03/06 01:53:09;;;;;;;1.67;1.52;;;;;;;-1.16;100.00;90294.03;5031603;28;20097;-68
2022/03/06 01:55:36;;;;;;;1.67;1.58;;;;;;;-1.20;100.00;90295.59;5031461;28;20043;-68
2022/03/06 01:58:05;;;;;;;3.30;1.88;;;;;;;-1.14;100.00;90296.41;5031479;28;20025;-67
2022/03/06 02:00:37;;;;;;;2.03;1.90;;;;;;;-1.14;100.00;90289.34;5031487;28;20036;-67
2022/03/06 02:03:03;;;;;;;3.53;1.70;;;;;;;-1.17;100.00;90286.47;5031576;28;20473;-67
2022/03/06 02:05:28;;;;;;;2.20;2.00;;;;;;;-1.18;100.00;90297.94;5031572;28;20033;-67
2022/03/06 02:07:54;;;;;;;1.90;1.80;;;;;;;-1.17;100.00;90297.69;5031310;28;20033;-67
2022/03/06 02:10:19;;;;;;;1.20;1.10;;;;;;;-1.22;100.00;90282.03;5031258;28;20246;-67
2022/03/06 02:12:46;;;;;;;3.38;1.60;;;;;;;-1.24;100.00;90292.72;5030705;28;20483;-67
2022/03/06 02:15:13;;;;;;;1.52;1.40;;;;;;;-1.25;100.00;90270.28;5031021;28;20045;-68
2022/03/06 02:17:39;;;;;;;2.83;1.65;;;;;;;-1.25;100.00;90270.28;5031274;28;20056;-67
2022/03/06 02:20:09;;;;;;;1.75;1.58;;;;;;;-1.28;100.00;90280.41;5031290;28;20064;-67
2022/03/06 02:22:37;;;;;;;2.53;2.05;;;;;;;-1.27;100.00;90277.53;5031055;28;20407;-68
2022/03/06 02:25:11;;;;;;;1.63;1.52;;;;;;;-1.34;100.00;90284.81;5031147;28;20036;-68
2022/03/06 02:27:37;;;;;;;2.20;1.98;;;;;;;-1.28;100.00;90288.25;5031166;28;20156;-68
2022/03/06 02:30:16;;;;;;;2.28;2.08;;;;;;;-1.30;100.00;90266.84;5031127;28;20109;-67
2022/03/06 02:32:43;;;;;;;1.98;1.75;;;;;;;-1.36;100.00;90270.47;5030893;28;20403;-68
2022/03/06 02:35:09;;;;;;;3.95;2.30;;;;;;;-1.34;100.00;90268.38;5030822;28;20092;-68
2022/03/06 02:37:35;;;;;;;7.22;2.40;;;;;;;-1.44;100.00;90270.94;5031010;28;20114;-67
2022/03/06 02:40:06;;;;;;;2.22;2.03;;;;;;;-1.41;100.00;90276.44;5030971;28;20033;-68
2022/03/06 02:42:37;;;;;;;2.13;1.73;;;;;;;-1.44;100.00;90291.81;5030873;28;20021;-68
2022/03/06 02:45:14;;;;;;;2.13;1.70;;;;;;;-1.47;100.00;90300.13;5030964;28;20061;-68
2022/03/06 02:47:41;;;;;;;2.85;2.10;;;;;;;-1.46;100.00;90280.84;5031069;28;20022;-68
2022/03/06 02:50:10;;;;;;;2.05;1.83;;;;;;;-1.48;100.00;90283.69;5031003;28;20048;-68
2022/03/06 02:52:37;;;;;;;2.60;2.40;;;;;;;-1.50;100.00;90291.00;5030962;28;20383;-68
2022/03/06 02:55:04;;;;;;;2.63;1.55;;;;;;;-1.46;100.00;90279.00;5030812;28;20041;-68
2022/03/06 02:57:29;;;;;;;2.47;2.05;;;;;;;-1.46;100.00;90299.88;5013139;28;20513;-68
2022/03/06 02:59:55;;;;;;;2.65;2.45;;;;;;;-1.43;100.00;90280.31;5030124;28;20046;-68
2022/03/06 03:02:20;;;;;;;2.17;1.90;;;;;;;-1.40;100.00;90290.28;5030740;28;20033;-68
2022/03/06 03:04:46;;;;;;;2.25;1.60;;;;;;;-1.41;100.00;90288.72;5030780;28;20029;-67
2022/03/06 03:07:12;;;;;;;2.00;1.85;;;;;;;-1.51;100.00;90292.03;5030784;28;20030;-68
2022/03/06 03:09:37;;;;;;;2.22;2.03;;;;;;;-1.50;100.00;90285.78;5030807;28;20042;-68
2022/03/06 03:12:04;;;;;;;1.70;1.60;;;;;;;-1.56;100.00;90289.41;5031397;28;20498;-68
2022/03/06 03:14:32;;;;;;;2.08;1.83;;;;;;;-1.52;100.00;90275.59;5030415;28;20029;-68
2022/03/06 03:17:01;;;;;;;1.73;1.60;;;;;;;-1.63;100.00;90294.81;5030791;28;20028;-68
2022/03/06 03:19:27;;;;;;;1.77;1.67;;;;;;;-1.54;100.00;90293.31;5030693;28;20029;-68
2022/03/06 03:21:53;;;;;;;1.60;1.50;;;;;;;-1.56;100.00;90299.84;5030599;28;20025;-68
2022/03/06 03:24:19;;;;;;;2.15;1.42;;;;;;;-1.60;100.00;90291.72;5031695;28;20025;-68
2022/03/06 03:26:44;;;;;;;2.08;1.75;;;;;;;-1.57;100.00;90304.25;5034369;28;20029;-68
2022/03/06 03:29:09;;;;;;;2.25;1.80;;;;;;;-1.55;100.00;90323.06;5034395;28;20408;-68
2022/03/06 03:31:35;;;;;;;1.83;1.65;;;;;;;-1.55;100.00;90296.97;5034266;28;20347;-68
2022/03/06 03:34:00;;;;;;;1.88;1.63;;;;;;;-1.55;100.00;90286.53;5034304;28;20033;-68
2022/03/06 03:36:26;;;;;;;2.00;1.80;;;;;;;-1.63;100.00;90292.22;5034096;28;20030;-67
2022/03/06 03:38:51;;;;;;;1.80;1.50;;;;;;;-1.61;100.00;90297.97;5034142;28;20032;-68
2022/03/06 03:41:17;;;;;;;5.40;1.95;;;;;;;-1.60;100.00;90309.97;5034060;28;20514;-68
2022/03/06 03:43:42;;;;;;;5.07;1.40;;;;;;;-1.69;100.00;90290.63;5034071;28;20459;-68
2022/03/06 03:46:08;;;;;;;1.58;1.48;;;;;;;-1.65;100.00;90298.72;5034583;28;20036;-67
2022/03/06 03:48:33;;;;;;;3.00;1.60;;;;;;;-1.67;100.00;90292.97;5034004;28;20402;-68
2022/03/06 03:50:59;;;;;;;1.50;1.40;;;;;;;-1.71;100.00;90291.91;5034036;28;20479;-67
2022/03/06 03:53:24;;;;;;;2.10;1.90;;;;;;;-1.63;100.00;90305.25;5033905;28;20407;-67
2022/03/06 03:55:52;;;;;;;1.92;1.60;;;;;;;-1.71;100.00;90294.53;5033850;28;20033;-68
2022/03/06 03:58:18;;;;;;;1.52;1.42;;;;;;;-1.76;100.00;90297.84;5033788;28;20026;-68
2022/03/06 04:00:44;;;;;;;1.60;1.50;;;;;;;-1.77;100.00;90293.69;5033844;28;20040;-67
2022/03/06 04:03:10;;;;;;;1.45;1.35;;;;;;;-1.81;100.00;90287.41;5033697;28;20068;-68
2022/03/06 04:05:36;;;;;;;1.52;1.42;;;;;;;-1.79;100.00;90310.63;5033593;28;20479;-68
2022/03/06 04:08:02;;;;;;;5.45;1.40;;;;;;;-1.81;100.00;90284.78;5033626;28;20025;-67
2022/03/06 04:10:27;;;;;;;1.63;1.27;;;;;;;-1.83;100.00;90290.25;5033523;28;20036;-68
2022/03/06 04:12:53;;;;;;;1.23;1.13;;;;;;;-1.85;100.00;90309.81;5033584;28;20017;-67
2022/03/06 04:15:18;;;;;;;2.63;1.95;;;;;;;-1.82;100.00;90304.88;5033210;28;20068;-68
2022/03/06 04:17:43;;;;;;;1.48;1.38;;;;;;;-2.03;100.00;90273.69;5033449;28;20041;-68
2022/03/06 04:20:09;;;;;;;2.10;1.70;;;;;;;-1.90;100.00;90292.28;5033420;28;20025;-68
2022/03/06 04:22:34;;;;;;;2.20;1.60;;;;;;;-1.93;100.00;90279.75;5033584;28;20479;-68
2022/03/06 04:25:00;;;;;;;1.30;1.20;;;;;;;-1.93;100.00;90292.00;5033253;28;20059;-68
2022/03/06 04:27:25;;;;;;;1.83;1.67;;;;;;;-1.95;100.00;90299.28;5033352;28;20112;-68
2022/03/06 04:29:51;;;;;;;2.03;1.70;;;;;;;-1.95;100.00;90279.22;5033285;28;20112;-68
2022/03/06 04:32:17;;;;;;;3.42;2.40;;;;;;;-1.93;100.00;90284.19;5033204;28;20030;-68
2022/03/06 04:34:42;;;;;;;2.47;1.58;;;;;;;-1.99;100.00;90296.41;5033178;28;20028;-67
2022/03/06 04:37:08;;;;;;;2.30;1.80;;;;;;;-2.01;100.00;90279.44;5033100;28;20083;-68
2022/03/06 04:39:33;;;;;;;1.73;1.63;;;;;;;-2.04;100.00;90277.34;5033395;28;20057;-68
2022/03/06 04:41:58;;;;;;;2.05;1.80;;;;;;;-2.05;100.00;90280.97;5032989;28;20080;-67
2022/03/06 04:44:24;;;;;;;3.33;1.75;;;;;;;-2.05;100.00;90286.16;5015047;28;20038;-68
2022/03/06 04:46:49;;;;;;;2.20;1.80;;;;;;;-2.07;100.00;90293.44;5033044;28;20063;-68
2022/03/06 04:49:15;;;;;;;2.80;2.30;;;;;;;-2.05;100.00;90281.78;5032859;28;20099;-67
2022/03/06 04:51:40;;;;;;;1.90;1.60;;;;;;;-2.06;100.00;90289.81;5032811;28;20107;-67
2022/03/06 04:54:07;;;;;;;1.98;1.70;;;;;;;-2.11;100.00;90283.53;5032694;28;20033;-68
2022/03/06 04:56:33;;;;;;;1.58;1.35;;;;;;;-2.15;100.00;90295.50;5032770;28;20458;-68
2022/03/06 04:58:58;;;;;;;2.17;1.98;;;;;;;-2.08;100.00;90295.28;5032814;28;20041;-68
2022/03/06 05:01:23;;;;;;;1.60;1.50;;;;;;;-2.14;100.00;90289.25;5032742;28;20467;-67
2022/03/06 05:03:49;;;;;;;2.20;2.00;;;;;;;-2.14;100.00;90297.06;5032606;28;20022;-67
2022/03/06 05:06:14;;;;;;;1.65;1.50;;;;;;;-2.18;100.00;90295.19;5032524;28;20029;-67
2022/03/06 05:08:40;;;;;;;1.77;1.45;;;;;;;-2.20;100.00;90290.25;5014730;28;20095;-68
2022/03/06 05:11:05;;;;;;;2.22;1.80;;;;;;;-2.13;100.00;90272.56;5032426;28;20025;-68
2022/03/06 05:13:31;;;;;;;1.45;1.30;;;;;;;-2.16;100.00;90272.28;5032237;28;20033;-68
2022/03/06 05:15:56;;;;;;;2.67;2.13;;;;;;;-2.15;100.00;90285.06;5032019;28;20077;-67
2022/03/06 05:18:22;;;;;;;1.50;1.40;;;;;;;-2.16;100.00;90285.31;5032453;28;20029;-67
2022/03/06 05:20:48;;;;;;;2.00;1.70;;;;;;;-2.15;100.00;90273.84;5032325;28;20558;-68
2022/03/06 05:23:13;;;;;;;2.33;2.13;;;;;;;-2.22;100.00;90278.47;5032065;28;20398;-68
2022/03/06 05:25:39;;;;;;;2.47;2.20;;;;;;;-2.17;100.00;90288.97;5032103;28;20037;-67
2022/03/06 05:28:04;;;;;;;2.15;1.45;;;;;;;-2.16;100.00;90282.72;5032190;28;20040;-67
2022/03/06 05:30:31;;;;;;;1.88;1.75;;;;;;;-2.18;100.00;90292.59;5032144;28;20029;-67
2022/03/06 05:32:57;;;;;;;1.75;1.63;;;;;;;-2.16;100.00;90293.91;5032072;28;20021;-67
2022/03/06 05:35:23;;;;;;;2.85;1.95;;;;;;;-2.16;100.00;90274.91;5032006;28;20040;-67
2022/03/06 05:37:48;;;;;;;1.80;1.70;;;;;;;-2.11;100.00;90293.16;5032075;28;20514;-68
2022/03/06 05:40:14;;;;;;;2.50;2.00;;;;;;;-1.99;100.00;90295.63;5031908;28;20033;-67
2022/03/06 05:42:39;;;;;;;1.50;1.40;;;;;;;-2.09;100.00;90282.50;5032141;28;20098;-68
2022/03/06 05:45:05;;;;;;;1.77;1.67;;;;;;;-2.08;100.00;90281.47;5031794;28;20419;-68
2022/03/06 05:47:30;;;;;;;1.42;1.33;;;;;;;-2.05;100.00;90279.16;5031175;28;20057;-68
2022/03/06 05:49:56;;;;;;;2.65;1.85;;;;;;;-2.01;100.00;90272.41;5031965;28;20031;-67
2022/03/06 05:52:21;;;;;;;4.22;3.05;;;;;;;-1.87;100.00;90268.34;5031689;28;20636;-67
2022/03/06 05:54:47;;;;;;;1.45;1.35;;;;;;;-1.88;100.00;90279.03;5031106;28;20033;-68
2022/03/06 05:57:12;;;;;;;3.42;2.20;;;;;;;-1.84;100.00;90277.47;5031535;28;20029;-69
2022/03/06 05:59:38;;;;;;;6.50;4.20;;;;;;;-1.77;100.00;90269.44;5012906;28;20562;-68
2022/03/06 06:02:04;;;;;;;2.55;1.83;;;;;;;-1.76;100.00;90290.03;5011417;28;20060;-68
2022/03/06 06:04:29;;;;;;;3.30;2.25;;;;;;;-1.72;100.00;90274.69;5011324;28;20037;-68
2022/03/06 06:06:54;;;;;;;4.70;3.15;;;;;;;-1.72;100.00;90280.69;5011415;28;20058;-69
2022/03/06 06:09:20;;;;;;;2.03;1.83;;;;;;;-1.79;100.00;90285.31;5011482;28;20262;-68
2022/03/06 06:11:45;;;;;;;1.75;1.65;;;;;;;-1.78;100.00;90267.88;5011351;28;20030;-68
2022/03/06 06:14:11;;;;;;;3.20;2.72;;;;;;;-1.71;100.00;90281.47;5011159;28;20091;-69
2022/03/06 06:16:37;;;;;;;2.03;1.90;;;;;;;-1.78;100.00;90266.03;5011188;28;20041;-70
2022/03/06 06:19:03;;;;;;;2.30;2.08;;;;;;;-1.65;100.00;90275.25;5010824;28;20022;-69
2022/03/06 06:21:29;;;;;;;4.93;1.70;;;;;;;-1.72;100.00;90280.69;5011425;28;20025;-69
2022/03/06 06:23:55;;;;;;;2.08;1.80;;;;;;;-1.72;100.00;90264.28;5011104;28;20084;-69
2022/03/06 06:26:20;;;;;;;2.25;1.98;;;;;;;-1.85;100.00;90270.69;5011154;28;20044;-69
2022/03/06 06:28:48;;;;;;;3.05;2.53;;;;;;;-1.82;100.00;90272.81;5011313;28;20056;-69
2022/03/06 06:31:13;;;;;;;2.78;2.20;;;;;;;-1.69;100.00;90280.19;5009873;28;20037;-69
2022/03/06 06:33:39;;;;;;;3.72;2.17;;;;;;;-1.62;100.00;90275.53;5010738;28;20404;-69
2022/03/06 06:36:04;;;;;;;2.40;2.15;;;;;;;-1.67;100.00;90278.13;5011081;28;20050;-69
2022/03/06 06:38:30;;;;;;;4.65;3.28;;;;;;;-1.55;100.00;90283.16;5010878;28;20033;-67
2022/03/06 06:40:55;;;;;;;2.10;1.90;;;;;;;-1.61;100.00;90291.97;5010964;28;20065;-68
2022/03/06 06:43:21;;;;;;;1.90;1.80;;;;;;;-1.53;100.00;90294.91;5010947;28;20033;-68
2022/03/06 06:45:47;;;;;;;3.30;2.78;;;;;;;-1.35;100.00;90285.06;5010931;28;20034;-68
2022/03/06 06:48:13;;;;;;;2.42;1.80;;;;;;;-1.22;100.00;90289.84;5010593;28;20523;-68
2022/03/06 06:50:38;;;;;;;4.50;3.30;;;;;;;-1.08;100.00;90290.97;5011047;28;20491;-68
2022/03/06 06:53:03;;;;;;;2.47;2.13;;;;;;;-1.30;100.00;90305.97;5010990;28;20497;-69
2022/03/06 06:55:29;;;;;;;5.18;3.70;;;;;;;-1.24;100.00;90297.16;5010937;28;20041;-68
2022/03/06 06:57:55;;;;;;;8.45;5.55;;;;;;;-1.19;100.00;90289.34;5011015;28;20513;-68
2022/03/06 07:00:21;;;;;;;7.80;4.43;;;;;;;-1.18;100.00;90290.13;5013799;28;20410;-69
2022/03/06 07:02:46;;;;;;;2.15;1.90;;;;;;;-1.40;100.00;90300.72;5014474;28;20057;-69
2022/03/06 07:05:13;;;;;;;2.50;2.28;;;;;;;-1.41;100.00;90306.97;5014774;28;20116;-68
2022/03/06 07:07:38;;;;;;;3.75;2.65;;;;;;;-1.07;100.00;90292.53;5015009;28;20030;-68
2022/03/06 07:10:05;;;;;;;1.92;1.70;;;;;;;-1.01;100.00;90294.13;5014789;28;20406;-68
2022/03/06 07:12:30;;;;;;;1.83;1.73;;;;;;;-1.08;100.00;90290.97;5014640;28;20026;-68
2022/03/06 07:14:56;;;;;;;7.28;3.33;;;;;;;-0.68;100.00;90284.31;5014272;28;20054;-69
2022/03/06 07:17:22;;;;;;;3.70;2.60;;;;;;;-0.79;100.00;90293.16;5014231;28;20023;-68
2022/03/06 07:19:47;;;;;;;2.50;1.92;;;;;;;-0.79;100.00;90275.69;5014552;28;20029;-68
2022/03/06 07:22:15;;;;;;;2.50;2.30;;;;;;;-0.98;100.00;90270.09;5014486;28;20477;-68
2022/03/06 07:24:40;;;;;;;3.15;2.50;;;;;;;-0.89;100.00;90282.69;5014412;28;20485;-68
2022/03/06 07:27:05;;;;;;;1.90;1.80;;;;;;;-0.84;100.00;90273.03;5014334;28;20037;-68
2022/03/06 07:29:31;;;;;;;3.38;2.42;;;;;;;-0.62;100.00;90296.34;5014397;28;20125;-68
2022/03/06 07:31:56;;;;;;;2.35;1.98;;;;;;;-0.34;100.00;90288.03;5013905;28;20026;-69
2022/03/06 07:34:22;;;;;;;5.53;3.10;;;;;;;-0.16;100.00;90275.53;5014086;28;20030;-69
2022/03/06 07:36:47;;;;;;;9.73;5.60;;;;;;;0.23;100.00;90281.03;5014207;28;20562;-69
2022/03/06 07:39:12;;;;;;;7.18;5.18;;;;;;;-0.34;100.00;90263.75;5014224;28;20034;-69
2022/03/06 07:41:38;;;;;;;14.52;7.65;;;;;;;-0.41;100.00;90269.22;5014204;28;20531;-68
2022/03/06 07:44:04;;;;;;;1.77;1.67;;;;;;;-0.77;100.00;90281.44;5014042;28;20022;-70
2022/03/06 07:46:29;;;;;;;1.80;1.67;;;;;;;-1.07;100.00;90279.47;5014115;28;20032;-69
2022/03/06 07:48:54;;;;;;;2.00;1.85;;;;;;;-0.85;100.00;90289.75;5013811;28;20025;-68
2022/03/06 07:51:20;;;;;;;2.35;2.00;;;;;;;-0.92;100.00;90304.88;5032688;28;20122;-68
2022/03/06 07:53:45;;;;;;;2.65;2.40;;;;;;;-0.72;100.00;90304.16;5033324;28;20033;-68
2022/03/06 07:56:11;;;;;;;4.15;3.05;;;;;;;-0.97;100.00;90299.59;5033527;28;20030;-68
2022/03/06 07:58:36;;;;;;;5.28;3.83;;;;;;;-0.78;100.00;90316.41;5033532;28;20029;-68
2022/03/06 08:01:02;;;;;;;6.00;4.35;;;;;;;-0.84;100.00;90308.81;5032953;28;20029;-67
2022/03/06 08:03:27;;;;;;;4.40;3.00;;;;;;;-1.01;100.00;90307.16;5033383;28;20107;-68
2022/03/06 08:05:53;;;;;;;2.83;2.35;;;;;;;-1.44;100.00;90302.22;5025026;28;20548;-67
2022/03/06 08:08:18;;;;;;;4.25;2.40;;;;;;;-1.51;100.00;90292.81;5026654;28;20021;-68
2022/03/06 08:10:44;;;;;;;6.53;3.70;;;;;;;-1.33;100.00;90286.41;5032240;28;20021;-68
2022/03/06 08:13:09;;;;;;;3.22;2.75;;;;;;;-1.25;100.00;90295.59;5030292;28;20037;-66
2022/03/06 08:15:36;;;;;;;5.47;3.05;;;;;;;-1.25;100.00;90300.81;5023673;28;20041;-67
2022/03/06 08:18:01;;;;;;;5.28;3.45;;;;;;;-1.20;100.00;90293.00;5033049;28;20510;-68
2022/03/06 08:20:27;;;;;;;5.13;3.53;;;;;;;-0.87;100.00;90299.66;5033111;28;20029;-68
2022/03/06 08:22:52;;;;;;;3.45;2.63;;;;;;;-0.47;100.00;90316.53;5028776;28;20026;-68
2022/03/06 08:25:20;;;;;;;6.57;3.58;;;;;;;-0.12;100.00;90311.34;5023090;28;20053;-68
2022/03/06 08:27:46;;;;;;;2.38;2.10;;;;;;;1.43;100.00;90311.69;5032121;28;20026;-68
2022/03/06 08:30:13;;;;;;;3.85;2.70;;;;;;;0.97;100.00;90306.59;5025055;28;20029;-69
2022/03/06 08:32:39;;;;;;;1.73;1.60;;;;;;;0.97;100.00;90308.44;5022865;28;20033;-66
2022/03/06 08:35:07;;;;;;;5.18;3.67;;;;;;;0.56;100.00;90292.78;5016215;28;20468;-68
2022/03/06 08:37:32;;;;;;;3.00;2.70;;;;;;;0.46;100.00;90314.50;5021927;28;20021;-67
2022/03/06 08:39:58;;;;;;;2.25;2.05;;;;;;;0.30;100.00;90277.09;5021114;28;20084;-67
2022/03/06 08:42:24;;;;;;;2.35;2.08;;;;;;;1.31;100.00;90295.47;5022556;28;20033;-66
2022/03/06 08:44:49;;;;;;;5.93;2.22;;;;;;;0.86;100.00;90281.47;4995264;28;20042;-69
2022/03/06 08:47:15;;;;;;;2.42;2.22;;;;;;;0.34;100.00;90271.38;5012162;28;20028;-69
2022/03/06 08:49:40;;;;;;;3.30;2.70;;;;;;;0.20;100.00;90276.34;5021696;28;20590;-68
2022/03/06 08:52:07;;;;;;;4.78;2.90;;;;;;;0.93;100.00;90270.72;5003496;28;20093;-68
2022/03/06 08:54:33;;;;;;;3.53;2.83;;;;;;;3.01;100.00;90279.84;5020097;28;20021;-68
2022/03/06 08:56:58;;;;;;;2.72;2.30;;;;;;;3.03;100.00;90261.16;5030897;28;20041;-67
2022/03/06 08:59:24;;;;;;;5.30;3.03;;;;;;;2.70;100.00;90261.75;5031845;28;20075;-66
2022/03/06 09:01:55;;;;;;;3.15;2.78;;;;;;;4.86;98.44;90261.25;5031600;28;20525;-65
2022/03/06 09:04:21;;;;;;;3.28;2.67;;;;;;;3.86;100.00;90256.19;5032010;28;20037;-67
2022/03/06 09:06:46;;;;;;;9.95;7.00;;;;;;;3.78;98.49;90240.25;5031971;28;20546;-68
2022/03/06 09:09:12;;;;;;;5.40;4.18;;;;;;;3.75;96.61;90259.25;5031656;28;20037;-67
2022/03/06 09:11:37;;;;;;;3.92;2.40;;;;;;;4.47;93.11;90259.78;5014196;28;20029;-66
2022/03/06 09:14:03;;;;;;;4.60;2.50;;;;;;;3.80;93.00;90256.56;5031880;28;20037;-67
2022/03/06 09:16:28;;;;;;;5.50;4.35;;;;;;;5.34;90.71;90267.72;5031296;28;20084;-68
2022/03/06 09:18:54;;;;;;;3.15;2.80;;;;;;;4.20;88.67;90250.69;5031565;28;20112;-67
2022/03/06 09:21:19;;;;;;;3.50;3.08;;;;;;;3.33;94.46;90246.91;5024310;28;20337;-67
2022/03/06 09:23:45;;;;;;;5.30;3.40;;;;;;;1.91;100.00;90249.81;5013571;28;20037;-68
2022/03/06 09:26:10;;;;;;;5.20;4.15;;;;;;;1.89;100.00;90245.88;5011702;28;20033;-68
2022/03/06 09:28:36;;;;;;;4.88;3.30;;;;;;;1.18;100.00;90252.28;5011587;28;20030;-68
2022/03/06 09:31:01;;;;;;;5.72;3.38;;;;;;;0.75;100.00;90244.06;5011311;28;20026;-68
2022/03/06 09:33:27;;;;;;;4.10;3.67;;;;;;;1.54;100.00;90275.72;5011788;28;20115;-68
2022/03/06 09:35:52;;;;;;;5.13;3.72;;;;;;;2.14;100.00;90258.03;5011267;28;20026;-70
2022/03/06 09:38:18;;;;;;;4.03;2.95;;;;;;;1.57;100.00;90264.69;5010915;28;20034;-71
2022/03/06 09:40:44;;;;;;;3.75;3.33;;;;;;;0.81;100.00;90250.06;5011090;28;20037;-72
2022/03/06 09:43:14;;;;;;;4.60;3.50;;;;;;;0.40;100.00;90241.53;5016941;28;20036;-73
2022/03/06 09:45:43;;;;;;;5.15;3.88;;;;;;;0.19;100.00;90249.41;5030843;28;20026;-70
2022/03/06 09:48:11;;;;;;;4.30;3.22;;;;;;;-0.14;100.00;90242.88;5031450;28;20033;-72
2022/03/06 09:50:36;;;;;;;10.40;6.28;;;;;;;-0.37;100.00;90244.16;5031209;28;20056;-70
2022/03/06 09:53:02;;;;;;;15.35;9.35;;;;;;;-0.15;100.00;90277.13;5029973;28;20117;-69
2022/03/06 09:55:29;;;;;;;5.70;3.60;;;;;;;-1.08;100.00;90271.91;5031273;28;20029;-68
2022/03/06 09:57:56;;;;;;;5.40;4.18;;;;;;;-1.10;100.00;90287.03;5026986;28;20105;-68
2022/03/06 10:00:22;;;;;;;4.35;2.58;;;;;;;-1.28;100.00;90283.81;5010685;28;20080;-69
2022/03/06 10:02:57;;;;;;;7.57;4.93;;;;;;;-1.52;100.00;90259.94;5011562;28;20030;-67
2022/03/06 10:05:32;;;;;;;6.22;4.00;;;;;;;-1.54;100.00;90267.25;5011284;28;20450;-68
2022/03/06 10:08:18;;;;;;;3.38;2.92;;;;;;;-1.79;100.00;90282.72;5011369;28;20127;-64
2022/03/06 10:10:45;;;;;;;6.55;5.15;;;;;;;-1.88;100.00;90282.41;5011252;28;20029;-69
2022/03/06 10:13:23;;;;;;;4.80;3.75;;;;;;;-1.64;100.00;90282.81;5010684;28;20527;-68
2022/03/06 10:16:16;;;;;;;6.22;4.47;;;;;;;-1.23;100.00;90291.69;5010364;28;20065;-68
2022/03/06 10:18:47;;;;;;;5.95;4.05;;;;;;;-0.86;100.00;90271.72;5007612;28;20034;-67
2022/03/06 10:21:32;;;;;;;5.28;3.95;;;;;;;0.22;100.00;90280.25;5011110;28;20038;-69
2022/03/06 10:24:00;;;;;;;4.40;3.38;;;;;;;0.30;100.00;90279.72;5010703;28;20030;-68
2022/03/06 10:26:32;;;;;;;6.03;4.25;;;;;;;0.87;100.00;90268.13;5010918;28;20034;-68
2022/03/06 10:29:00;;;;;;;4.18;3.30;;;;;;;0.54;100.00;90276.56;5010477;28;20104;-68
2022/03/06 10:31:31;;;;;;;3.53;3.03;;;;;;;0.15;100.00;90271.88;5015157;28;20026;-68
2022/03/06 10:34:03;;;;;;;3.55;2.97;;;;;;;0.78;100.00;90267.06;5029682;28;20478;-66
2022/03/06 10:36:43;;;;;;;4.43;3.30;;;;;;;0.20;100.00;90312.97;5029477;28;20037;-66
2022/03/06 10:39:20;;;;;;;3.33;3.03;;;;;;;0.42;100.00;90287.31;5017641;28;20046;-67
2022/03/06 10:41:47;;;;;;;3.88;3.38;;;;;;;-0.32;100.00;90291.22;5020443;28;20140;-67
2022/03/06 10:44:15;;;;;;;4.63;3.08;;;;;;;-0.62;100.00;90294.53;5017326;28;20053;-65
2022/03/06 10:46:41;;;;;;;4.10;3.60;;;;;;;-1.19;100.00;90289.34;5017519;28;20021;-65
2022/03/06 10:49:12;;;;;;;7.22;4.85;;;;;;;-1.23;100.00;90290.88;5010763;28;20029;-67
2022/03/06 10:51:47;;;;;;;5.35;3.92;;;;;;;-1.16;100.00;90273.16;5010671;28;20022;-67
2022/03/06 10:54:14;;;;;;;10.02;6.35;;;;;;;-0.89;100.00;90295.72;5015043;28;20407;-68
2022/03/06 10:56:43;;;;;;;8.93;6.80;;;;;;;-0.61;100.00;90283.03;5030509;28;20029;-66
2022/03/06 10:59:09;;;;;;;7.00;5.28;;;;;;;-0.57;100.00;90275.47;5029825;28;20534;-68
2022/03/06 11:01:37;;;;;;;9.93;7.00;;;;;;;-0.71;100.00;90249.06;5025694;28;20026;-68
2022/03/06 11:04:06;;;;;;;9.73;5.70;;;;;;;-0.69;100.00;90267.06;5018237;28;20061;-69
2022/03/06 11:06:39;;;;;;;8.93;6.45;;;;;;;-0.69;100.00;90270.47;5018808;28;20087;-68
2022/03/06 11:09:09;;;;;;;6.82;5.13;;;;;;;-1.05;100.00;90277.41;5021593;28;20030;-68
2022/03/06 11:11:34;;;;;;;12.52;9.02;;;;;;;-0.62;100.00;90280.69;5020720;28;20057;-68
2022/03/06 11:14:01;;;;;;;10.05;7.20;;;;;;;-0.53;100.00;90273.91;5022096;28;20504;-68
2022/03/06 11:16:26;;;;;;;14.82;8.07;;;;;;;-0.80;100.00;90297.59;5016604;28;20048;-68
2022/03/06 11:18:52;;;;;;;12.10;8.02;;;;;;;-1.12;100.00;90297.72;5014236;28;20022;-67
2022/03/06 11:21:18;;;;;;;9.02;6.40;;;;;;;-1.23;100.00;90289.06;5010242;28;20038;-67
2022/03/06 11:23:47;;;;;;;11.95;8.15;;;;;;;-1.23;100.00;90298.72;4992759;28;20018;-68